Time;durP1;ratioP1;P1;durP2;ratioP2;P2;SDS_P1;SDS_P2;PMS_P1;PMS_P2;Temp;Humidity;BMP_temperature;BMP_pressure;BME280_temperature;BME280_humidity;BME280_pressure;Samples;Min_cycle;Max_cycle;Signal;HPM_P1;HPM_P2
2023/06/26 00:00:24;;;;;;;4.60;3.80;;;;;;;-148.14;100.00;71486.72;1725721;75;41081;-73
2023/06/26 00:02:54;;;;;;;3.60;3.30;;;;;;;-148.14;100.00;71486.72;1725660;75;42307;-71
2023/06/26 00:05:27;;;;;;;4.10;3.70;;;;;;;-148.14;100.00;71486.72;1725821;75;41408;-71
2023/06/26 00:08:00;;;;;;;3.90;3.50;;;;;;;-148.14;100.00;71486.72;1725322;75;41542;-71
2023/06/26 00:10:29;;;;;;;3.80;3.40;;;;;;;-148.14;100.00;71486.72;1725270;75;41405;-72
2023/06/26 00:12:59;;;;;;;4.00;3.60;;;;;;;-148.14;100.00;71486.72;1725258;75;41817;-72
2023/06/26 00:15:31;;;;;;;4.20;3.60;;;;;;;-148.14;100.00;71486.72;1725506;75;41455;-73
2023/06/26 00:18:02;;;;;;;3.90;3.20;;;;;;;-148.14;100.00;71486.72;1725127;75;42053;-71
2023/06/26 00:20:35;;;;;;;4.40;4.00;;;;;;;-148.14;100.00;71486.72;1725640;75;41442;-72
2023/06/26 00:23:08;;;;;;;4.80;3.90;;;;;;;-148.14;100.00;71486.72;1725163;75;42729;-72
2023/06/26 00:25:37;;;;;;;4.20;3.80;;;;;;;-148.14;100.00;71486.72;1725502;83;41243;-72
2023/06/26 00:28:07;;;;;;;4.10;3.70;;;;;;;-148.14;100.00;71486.72;1725654;75;42586;-71
2023/06/26 00:30:36;;;;;;;4.30;3.90;;;;;;;-148.14;100.00;71486.72;1726111;75;41425;-73
2023/06/26 00:33:06;;;;;;;4.10;3.70;;;;;;;-148.14;100.00;71486.72;1724919;75;41232;-72
2023/06/26 00:35:38;;;;;;;4.60;4.20;;;;;;;-148.14;100.00;71486.72;1726093;75;41175;-72
2023/06/26 00:38:07;;;;;;;4.80;4.30;;;;;;;-148.14;100.00;71486.72;1725467;75;43451;-73
2023/06/26 00:40:37;;;;;;;5.70;5.20;;;;;;;-148.14;100.00;71486.72;1726009;75;41368;-71
2023/06/26 00:43:06;;;;;;;5.00;4.50;;;;;;;-148.14;100.00;71486.72;1725513;83;41120;-72
2023/06/26 00:45:36;;;;;;;4.60;4.20;;;;;;;-148.14;100.00;71486.72;1725964;75;41065;-74
2023/06/26 00:48:06;;;;;;;4.60;4.20;;;;;;;-148.14;100.00;71486.72;1725370;75;41779;-71
2023/06/26 00:50:38;;;;;;;4.70;3.70;;;;;;;-148.14;100.00;71486.72;1726070;75;41448;-72
2023/06/26 00:53:07;;;;;;;4.50;4.10;;;;;;;-148.14;100.00;71486.72;1725566;75;41254;-71
2023/06/26 00:55:37;;;;;;;4.20;3.80;;;;;;;-148.14;100.00;71486.72;1726319;75;42189;-73
2023/06/26 00:58:06;;;;;;;4.70;4.10;;;;;;;-148.14;100.00;71486.72;1725632;75;41497;-73
2023/06/26 01:00:36;;;;;;;5.40;4.60;;;;;;;-148.14;100.00;71486.72;1725737;83;41141;-71
2023/06/26 01:03:05;;;;;;;3.90;3.50;;;;;;;-148.14;100.00;71486.72;1725481;75;41560;-73
2023/06/26 01:05:38;;;;;;;4.40;4.00;;;;;;;-148.14;100.00;71486.72;1726093;75;41662;-72
2023/06/26 01:08:08;;;;;;;5.10;4.20;;;;;;;-148.14;100.00;71486.72;1725544;75;41723;-71
2023/06/26 01:10:37;;;;;;;4.70;4.30;;;;;;;-148.14;100.00;71486.72;1725913;75;41136;-71
2023/06/26 01:13:07;;;;;;;4.50;4.10;;;;;;;-148.14;100.00;71486.72;1724900;75;42085;-70
2023/06/26 01:15:37;;;;;;;4.50;4.10;;;;;;;-148.14;100.00;71486.72;1725968;75;41282;-72
2023/06/26 01:18:07;;;;;;;3.90;3.50;;;;;;;-148.14;100.00;71486.72;1725601;75;41158;-73
2023/06/26 01:20:41;;;;;;;3.80;3.30;;;;;;;-148.14;100.00;71486.72;1726097;75;41177;-71
2023/06/26 01:23:16;;;;;;;3.70;3.30;;;;;;;-148.14;100.00;71486.72;1725668;83;41392;-72
2023/06/26 01:25:59;;;;;;;4.20;3.80;;;;;;;-148.14;100.00;71486.72;1726005;75;41096;-72
2023/06/26 01:28:31;;;;;;;3.90;3.50;;;;;;;-148.14;100.00;71486.72;1725527;83;42046;-71
2023/06/26 01:31:01;;;;;;;4.40;4.00;;;;;;;-148.14;100.00;71486.72;1726154;75;41588;-73
2023/06/26 01:33:31;;;;;;;3.80;3.50;;;;;;;-148.14;100.00;71486.72;1725251;75;41860;-73
2023/06/26 01:36:00;;;;;;;4.10;3.60;;;;;;;-148.14;100.00;71486.72;1725957;75;41571;-70
2023/06/26 01:38:30;;;;;;;3.90;3.50;;;;;;;-148.14;100.00;71486.72;1725341;75;41437;-75
2023/06/26 01:40:59;;;;;;;3.80;3.40;;;;;;;-148.14;100.00;71486.72;1726007;75;41773;-75
2023/06/26 01:43:38;;;;;;;4.20;3.80;;;;;;;-148.14;100.00;71486.72;1725361;75;41481;-73
2023/06/26 01:46:11;;;;;;;6.40;4.20;;;;;;;-148.14;100.00;71486.72;1725397;75;41963;-70
2023/06/26 01:48:46;;;;;;;4.20;3.80;;;;;;;-148.14;100.00;71486.72;1725499;83;41367;-76
2023/06/26 01:51:17;;;;;;;4.90;4.40;;;;;;;-148.14;100.00;71486.72;1725557;75;41566;-73
2023/06/26 01:53:49;;;;;;;6.00;5.40;;;;;;;-148.14;100.00;71486.72;1725913;75;41123;-72
2023/06/26 01:56:20;;;;;;;5.20;4.70;;;;;;;-148.14;100.00;71486.72;1725408;75;41407;-71
2023/06/26 01:58:54;;;;;;;7.10;5.80;;;;;;;-148.14;100.00;71486.72;1725918;75;41428;-70
2023/06/26 02:01:24;;;;;;;6.00;5.40;;;;;;;-148.14;100.00;71486.72;1725256;75;41206;-70
2023/06/26 02:03:54;;;;;;;6.00;5.40;;;;;;;-148.14;100.00;71486.72;1725906;75;41287;-73
2023/06/26 02:06:23;;;;;;;4.90;4.40;;;;;;;-148.14;100.00;71486.72;1725242;75;41608;-71
2023/06/26 02:08:56;;;;;;;3.90;3.60;;;;;;;-148.14;100.00;71486.72;1725442;75;41325;-70
2023/06/26 02:11:25;;;;;;;3.80;3.50;;;;;;;-148.14;100.00;71486.72;1725301;75;41577;-72
2023/06/26 02:13:57;;;;;;;4.20;3.80;;;;;;;-148.14;100.00;71486.72;1725927;83;41563;-73
2023/06/26 02:16:27;;;;;;;4.70;4.20;;;;;;;-148.14;100.00;71486.72;1725075;75;41647;-71
2023/06/26 02:18:57;;;;;;;4.90;4.50;;;;;;;-148.14;100.00;71486.72;1725923;75;41128;-73
2023/06/26 02:21:27;;;;;;;4.30;3.60;;;;;;;-148.14;100.00;71486.72;1725300;75;42898;-72
2023/06/26 02:23:56;;;;;;;3.10;2.80;;;;;;;-148.14;100.00;71486.72;1725399;75;41781;-70
2023/06/26 02:26:26;;;;;;;4.00;3.60;;;;;;;-148.14;100.00;71486.72;1725033;75;41945;-70
2023/06/26 02:28:58;;;;;;;5.40;4.40;;;;;;;-148.14;100.00;71486.72;1725886;75;41691;-75
2023/06/26 02:31:27;;;;;;;5.50;4.70;;;;;;;-148.14;100.00;71486.72;1725281;75;41258;-70
2023/06/26 02:33:57;;;;;;;5.50;5.00;;;;;;;-148.14;100.00;71486.72;1725893;75;41311;-71
2023/06/26 02:36:26;;;;;;;6.50;5.80;;;;;;;-148.14;100.00;71486.72;1724658;75;41724;-74
2023/06/26 02:38:56;;;;;;;5.80;5.20;;;;;;;-148.14;100.00;71486.72;1725630;75;41218;-70
2023/06/26 02:41:25;;;;;;;4.80;4.40;;;;;;;-148.14;100.00;71486.72;1725506;75;41450;-74
2023/06/26 02:43:57;;;;;;;4.50;4.10;;;;;;;-148.14;100.00;71486.72;1725782;75;41135;-74
2023/06/26 02:46:27;;;;;;;4.20;3.80;;;;;;;-148.14;100.00;71486.72;1724785;75;41845;-71
2023/06/26 02:48:56;;;;;;;4.90;4.40;;;;;;;-148.14;100.00;71486.72;1725272;75;41774;-72
2023/06/26 02:51:26;;;;;;;4.50;4.00;;;;;;;-148.14;100.00;71486.72;1725573;75;41114;-72
2023/06/26 02:53:55;;;;;;;4.70;4.20;;;;;;;-148.14;100.00;71486.72;1726304;75;41600;-70
2023/06/26 02:56:28;;;;;;;5.10;4.60;;;;;;;-148.14;100.00;71486.72;1725695;75;41251;-70
2023/06/26 02:59:00;;;;;;;4.60;3.90;;;;;;;-148.14;100.00;71486.72;1725583;75;41557;-73
2023/06/26 03:01:30;;;;;;;4.30;3.90;;;;;;;-148.14;100.00;71486.72;1725302;75;41860;-70
2023/06/26 03:04:00;;;;;;;4.20;3.80;;;;;;;-148.14;100.00;71486.72;1725909;75;41125;-73
2023/06/26 03:06:30;;;;;;;4.90;4.40;;;;;;;-148.14;100.00;71486.72;1725246;83;41595;-73
2023/06/26 03:08:59;;;;;;;4.90;4.50;;;;;;;-148.14;100.00;71486.72;1725822;75;41100;-72
2023/06/26 03:11:29;;;;;;;5.00;4.50;;;;;;;-148.14;100.00;71486.72;1725109;75;41500;-72
2023/06/26 03:14:01;;;;;;;5.40;4.90;;;;;;;-148.14;100.00;71486.72;1725894;75;41374;-70
2023/06/26 03:16:30;;;;;;;4.60;4.20;;;;;;;-148.14;100.00;71486.72;1725203;75;41108;-69
2023/06/26 03:19:00;;;;;;;5.50;4.20;;;;;;;-148.14;100.00;71486.72;1725649;75;42047;-71
2023/06/26 03:21:30;;;;;;;5.40;4.80;;;;;;;-148.14;100.00;71486.72;1725059;75;41236;-71
2023/06/26 03:23:59;;;;;;;5.70;5.10;;;;;;;-148.14;100.00;71486.72;1725614;75;41243;-70
2023/06/26 03:26:29;;;;;;;5.40;4.90;;;;;;;-148.14;100.00;71486.72;1725377;75;41695;-69
2023/06/26 03:29:01;;;;;;;5.00;4.50;;;;;;;-148.14;100.00;71486.72;1725589;75;41138;-70
2023/06/26 03:31:30;;;;;;;4.20;3.80;;;;;;;-148.14;100.00;71486.72;1724558;75;41511;-72
2023/06/26 03:34:00;;;;;;;4.00;3.60;;;;;;;-148.14;100.00;71486.72;1725580;75;41094;-68
2023/06/26 03:36:29;;;;;;;3.80;3.30;;;;;;;-148.14;100.00;71486.72;1724987;83;41481;-67
2023/06/26 03:39:00;;;;;;;3.90;3.50;;;;;;;-148.14;100.00;71486.72;1724945;75;41313;-69
2023/06/26 03:41:29;;;;;;;3.80;3.50;;;;;;;-148.14;100.00;71486.72;1724490;75;41563;-69
2023/06/26 03:44:01;;;;;;;5.00;4.50;;;;;;;-148.14;100.00;71486.72;1725087;75;41863;-70
2023/06/26 03:46:31;;;;;;;5.10;4.60;;;;;;;-148.14;100.00;71486.72;1725019;75;42324;-69
2023/06/26 03:49:00;;;;;;;4.60;4.10;;;;;;;-148.14;100.00;71486.72;1725728;75;41329;-69
2023/06/26 03:51:30;;;;;;;5.20;4.70;;;;;;;-148.14;100.00;71486.72;1725411;75;41232;-67
2023/06/26 03:53:59;;;;;;;4.10;3.70;;;;;;;-148.14;100.00;71486.72;1726088;75;41289;-71
2023/06/26 03:56:29;;;;;;;4.50;3.90;;;;;;;-148.14;100.00;71486.72;1725222;75;41604;-69
2023/06/26 03:59:01;;;;;;;4.00;3.60;;;;;;;-148.14;100.00;71486.72;1726229;75;41122;-71
2023/06/26 04:01:30;;;;;;;4.10;3.70;;;;;;;-148.14;100.00;71486.72;1725840;75;41418;-75
2023/06/26 04:04:00;;;;;;;4.40;4.00;;;;;;;-148.14;100.00;71486.72;1726597;75;41365;-70
2023/06/26 04:06:31;;;;;;;4.60;4.20;;;;;;;-148.14;100.00;71486.72;1725522;75;41747;-71
2023/06/26 04:09:00;;;;;;;4.90;4.40;;;;;;;-148.14;100.00;71486.72;1725980;75;41183;-70
2023/06/26 04:11:31;;;;;;;5.40;4.70;;;;;;;-148.14;100.00;71486.72;1725359;75;41212;-71
2023/06/26 04:14:03;;;;;;;4.50;4.10;;;;;;;-148.14;100.00;71486.72;1725573;75;41170;-70
2023/06/26 04:16:32;;;;;;;5.20;4.70;;;;;;;-148.14;100.00;71486.72;1725010;75;41729;-69
2023/06/26 04:19:02;;;;;;;5.00;4.30;;;;;;;-148.14;100.00;71486.72;1725635;75;41119;-69
2023/06/26 04:21:32;;;;;;;4.80;4.30;;;;;;;-148.14;100.00;71486.72;1725293;75;41440;-70
2023/06/26 04:24:01;;;;;;;4.40;4.00;;;;;;;-148.14;100.00;71486.72;1725705;75;41788;-74
2023/06/26 04:26:31;;;;;;;5.20;4.70;;;;;;;-148.14;100.00;71486.72;1724989;75;41341;-72
2023/06/26 04:29:03;;;;;;;4.40;4.00;;;;;;;-148.14;100.00;71486.72;1725310;75;41150;-70
2023/06/26 04:31:33;;;;;;;4.30;3.90;;;;;;;-148.14;100.00;71486.72;1725130;75;42057;-69
2023/06/26 04:34:02;;;;;;;4.90;4.40;;;;;;;-148.14;100.00;71486.72;1725541;75;41337;-69
2023/06/26 04:36:33;;;;;;;6.90;6.30;;;;;;;-148.14;100.00;71486.72;1725182;75;41699;-71
2023/06/26 04:39:03;;;;;;;8.80;7.60;;;;;;;-148.14;100.00;71486.72;1725394;75;42015;-70
2023/06/26 04:41:34;;;;;;;7.10;6.40;;;;;;;-148.14;100.00;71486.72;1725169;75;41683;-68
2023/06/26 04:44:06;;;;;;;13.00;11.70;;;;;;;-148.14;100.00;71486.72;1725467;75;41994;-71
2023/06/26 04:46:36;;;;;;;11.30;10.10;;;;;;;-148.14;100.00;71486.72;1725091;75;41824;-71
2023/06/26 04:49:05;;;;;;;12.10;10.90;;;;;;;-148.14;100.00;71486.72;1724995;75;41377;-69
2023/06/26 04:51:40;;;;;;;11.90;10.80;;;;;;;-148.14;100.00;71486.72;1724781;75;41223;-71
2023/06/26 04:54:12;;;;;;;12.00;10.80;;;;;;;-148.14;100.00;71486.72;1725585;83;42174;-68
2023/06/26 04:56:43;;;;;;;12.20;10.90;;;;;;;-148.14;100.00;71486.72;1725074;75;41336;-69
2023/06/26 04:59:15;;;;;;;11.20;10.10;;;;;;;-148.14;100.00;71486.72;1725656;75;41088;-72
2023/06/26 05:01:48;;;;;;;10.10;9.20;;;;;;;-148.14;100.00;71486.72;1724529;75;43275;-71
2023/06/26 05:04:17;;;;;;;9.60;8.70;;;;;;;-148.14;100.00;71486.72;1725483;75;41419;-70
2023/06/26 05:06:47;;;;;;;10.20;9.30;;;;;;;-148.14;100.00;71486.72;1725093;75;41608;-71
2023/06/26 05:09:16;;;;;;;11.80;9.60;;;;;;;-148.14;100.00;71486.72;1725479;83;41789;-72
2023/06/26 05:11:46;;;;;;;9.60;8.70;;;;;;;-148.14;100.00;71486.72;1724879;75;41894;-72
2023/06/26 05:14:18;;;;;;;11.70;10.50;;;;;;;-148.14;100.00;71486.72;1725721;75;41144;-72
2023/06/26 05:16:50;;;;;;;13.30;11.80;;;;;;;-148.14;100.00;71486.72;1724931;75;42608;-73
2023/06/26 05:19:20;;;;;;;11.80;10.70;;;;;;;-148.14;100.00;71486.72;1725861;75;41765;-70
2023/06/26 05:21:49;;;;;;;13.20;11.80;;;;;;;-148.14;100.00;71486.72;1725297;75;42219;-73
2023/06/26 05:24:19;;;;;;;12.30;11.10;;;;;;;-148.14;100.00;71486.72;1725801;75;41133;-71
2023/06/26 05:26:49;;;;;;;11.90;10.70;;;;;;;-148.14;100.00;71486.72;1725318;75;42696;-68
2023/06/26 05:29:22;;;;;;;12.70;11.40;;;;;;;-148.14;100.00;71486.72;1725899;75;41461;-68
2023/06/26 05:31:53;;;;;;;11.70;10.40;;;;;;;-148.14;100.00;71486.72;1725352;75;42262;-73
2023/06/26 05:34:23;;;;;;;10.40;8.90;;;;;;;-148.14;100.00;71486.72;1725606;75;42053;-70
2023/06/26 05:36:54;;;;;;;8.90;8.10;;;;;;;-148.14;100.00;71486.72;1725445;75;42328;-73
2023/06/26 05:39:24;;;;;;;7.60;6.80;;;;;;;-148.14;100.00;71486.72;1725983;75;41368;-68
2023/06/26 05:41:54;;;;;;;6.20;5.60;;;;;;;-148.14;100.00;71486.72;1725395;83;42123;-70
2023/06/26 05:44:26;;;;;;;6.50;5.90;;;;;;;-148.14;100.00;71486.72;1725872;75;41051;-72
2023/06/26 05:46:56;;;;;;;9.70;8.70;;;;;;;-148.14;100.00;71486.72;1725561;83;41837;-70
2023/06/26 05:49:25;;;;;;;9.20;8.20;;;;;;;-148.14;100.00;71486.72;1725861;75;41138;-68
2023/06/26 05:51:56;;;;;;;7.00;6.30;;;;;;;-148.14;100.00;71486.72;1725231;75;41966;-70
2023/06/26 05:54:27;;;;;;;7.60;6.80;;;;;;;-148.14;100.00;71486.72;1725938;75;41777;-70
2023/06/26 05:57:01;;;;;;;6.90;6.20;;;;;;;-148.14;100.00;71486.72;1725273;75;43549;-73
2023/06/26 05:59:33;;;;;;;9.00;8.10;;;;;;;-148.14;100.00;71486.72;1725175;75;41189;-71
2023/06/26 06:02:03;;;;;;;8.60;7.70;;;;;;;-148.14;100.00;71486.72;1725319;75;42111;-73
2023/06/26 06:04:33;;;;;;;8.30;7.50;;;;;;;-148.14;100.00;71486.72;1725696;75;41133;-72
2023/06/26 06:07:02;;;;;;;10.00;8.90;;;;;;;-148.14;100.00;71486.72;1725170;75;41667;-70
2023/06/26 06:09:32;;;;;;;9.40;8.50;;;;;;;-148.14;100.00;71486.72;1725779;75;41340;-71
2023/06/26 06:12:03;;;;;;;9.20;8.30;;;;;;;-148.14;100.00;71486.72;1725058;83;42283;-71
2023/06/26 06:14:35;;;;;;;10.80;9.70;;;;;;;-148.14;100.00;71486.72;1725057;75;41432;-71
2023/06/26 06:17:05;;;;;;;10.30;9.20;;;;;;;-148.14;100.00;71486.72;1725375;75;41427;-72
2023/06/26 06:19:35;;;;;;;10.60;9.50;;;;;;;-148.14;100.00;71486.72;1725552;75;41144;-73
2023/06/26 06:22:04;;;;;;;10.10;8.40;;;;;;;-148.14;100.00;71486.72;1725192;75;41063;-70
2023/06/26 06:24:34;;;;;;;9.90;8.90;;;;;;;-148.14;100.00;71486.72;1725582;75;41090;-70
2023/06/26 06:27:03;;;;;;;9.20;8.30;;;;;;;-148.14;100.00;71486.72;1725449;75;41367;-70
2023/06/26 06:29:35;;;;;;;8.50;7.70;;;;;;;-148.14;100.00;71486.72;1725568;75;42140;-71
2023/06/26 06:32:05;;;;;;;11.70;10.10;;;;;;;-148.14;100.00;71486.72;1725308;75;41609;-72
2023/06/26 06:34:34;;;;;;;11.00;9.90;;;;;;;-148.14;100.00;71486.72;1725642;75;41085;-71
2023/06/26 06:37:04;;;;;;;9.60;8.20;;;;;;;-148.14;100.00;71486.72;1725159;75;41749;-70
2023/06/26 06:39:34;;;;;;;7.70;6.90;;;;;;;-148.14;100.00;71486.72;1725500;75;42118;-71
2023/06/26 06:42:03;;;;;;;8.90;8.00;;;;;;;-148.14;100.00;71486.72;1725181;75;41365;-71
2023/06/26 06:44:35;;;;;;;6.90;6.20;;;;;;;-148.14;100.00;71486.72;1725714;83;41105;-73
2023/06/26 06:47:06;;;;;;;5.70;5.20;;;;;;;-148.14;100.00;71486.72;1725027;75;41873;-69
2023/06/26 06:49:36;;;;;;;5.30;4.80;;;;;;;-148.14;100.00;71486.72;1725722;75;41638;-70
2023/06/26 06:52:06;;;;;;;6.90;6.20;;;;;;;-148.14;100.00;71486.72;1724987;83;42090;-72
2023/06/26 06:54:35;;;;;;;7.90;6.30;;;;;;;-148.14;100.00;71486.72;1725803;75;41552;-73
2023/06/26 06:57:05;;;;;;;9.10;7.80;;;;;;;-148.14;100.00;71486.72;1725050;75;41327;-73
2023/06/26 06:59:37;;;;;;;7.00;6.20;;;;;;;-148.14;100.00;71486.72;1725811;75;41296;-72
2023/06/26 07:02:06;;;;;;;8.30;7.40;;;;;;;-148.14;100.00;71486.72;1725123;75;41973;-71
2023/06/26 07:04:36;;;;;;;8.20;7.10;;;;;;;-148.14;100.00;71486.72;1725743;75;41263;-70
2023/06/26 07:07:06;;;;;;;9.30;7.60;;;;;;;-148.14;100.00;71486.72;1725411;75;41506;-72
2023/06/26 07:09:35;;;;;;;8.20;7.20;;;;;;;-148.14;100.00;71486.72;1725862;75;41325;-71
2023/06/26 07:12:07;;;;;;;8.20;7.40;;;;;;;-148.14;100.00;71486.72;1725889;75;41483;-71
2023/06/26 07:14:39;;;;;;;7.50;6.80;;;;;;;-148.14;100.00;71486.72;1726510;83;41567;-73
2023/06/26 07:17:09;;;;;;;8.10;7.30;;;;;;;-148.14;100.00;71486.72;1726268;75;41315;-72
2023/06/26 07:19:38;;;;;;;10.70;8.00;;;;;;;-148.14;100.00;71486.72;1726506;83;41131;-70
2023/06/26 07:22:07;;;;;;;7.90;7.10;;;;;;;-148.14;100.00;71486.72;1725819;75;41318;-69
2023/06/26 07:24:37;;;;;;;11.10;8.50;;;;;;;-148.14;100.00;71486.72;1725916;75;41173;-71
2023/06/26 07:27:07;;;;;;;8.40;7.60;;;;;;;-148.14;100.00;71486.72;1724671;75;41586;-75
2023/06/26 07:29:39;;;;;;;8.40;7.60;;;;;;;-148.14;100.00;71486.72;1725208;75;41307;-71
2023/06/26 07:32:09;;;;;;;8.30;7.40;;;;;;;-148.14;100.00;71486.72;1724950;75;41148;-69
2023/06/26 07:34:39;;;;;;;8.60;7.70;;;;;;;-148.14;100.00;71486.72;1725246;75;41108;-68
2023/06/26 07:37:08;;;;;;;8.70;7.80;;;;;;;-148.14;100.00;71486.72;1724787;75;41212;-71
2023/06/26 07:39:38;;;;;;;8.20;7.30;;;;;;;-148.14;100.00;71486.72;1725534;75;41512;-71
2023/06/26 07:42:08;;;;;;;8.00;7.00;;;;;;;-148.14;100.00;71486.72;1724510;75;41952;-71
2023/06/26 07:44:40;;;;;;;9.70;7.60;;;;;;;-148.14;100.00;71486.72;1725562;75;41115;-70
2023/06/26 07:47:09;;;;;;;8.70;7.80;;;;;;;-148.14;100.00;71486.72;1724972;75;42033;-69
2023/06/26 07:49:39;;;;;;;8.00;7.20;;;;;;;-148.14;100.00;71486.72;1725577;83;41372;-74
2023/06/26 07:52:10;;;;;;;7.30;5.90;;;;;;;-148.14;100.00;71486.72;1724923;75;41530;-73
2023/06/26 07:54:39;;;;;;;7.10;6.40;;;;;;;-148.14;100.00;71486.72;1725668;75;41104;-68
2023/06/26 07:57:11;;;;;;;7.00;6.30;;;;;;;-148.14;100.00;71486.72;1724934;75;41202;-69
2023/06/26 07:59:43;;;;;;;9.60;8.60;;;;;;;-148.14;100.00;71486.72;1725496;83;41146;-71
2023/06/26 08:02:12;;;;;;;7.90;7.10;;;;;;;-148.14;100.00;71486.72;1725148;75;41455;-74
2023/06/26 08:04:44;;;;;;;7.10;6.40;;;;;;;-148.14;100.00;71486.72;1725456;75;41146;-71
2023/06/26 08:07:14;;;;;;;8.10;6.60;;;;;;;-148.14;100.00;71486.72;1724873;75;41452;-73
2023/06/26 08:09:43;;;;;;;8.00;7.20;;;;;;;-148.14;100.00;71486.72;1724869;75;41817;-73
2023/06/26 08:12:13;;;;;;;8.30;7.00;;;;;;;-148.14;100.00;71486.72;1724920;75;41596;-73
2023/06/26 08:14:45;;;;;;;7.40;6.70;;;;;;;-148.14;100.00;71486.72;1725634;75;41767;-70
2023/06/26 08:17:14;;;;;;;6.80;6.20;;;;;;;-148.14;100.00;71486.72;1725248;75;42073;-71
2023/06/26 08:19:44;;;;;;;7.60;6.80;;;;;;;-148.14;100.00;71486.72;1725562;75;41590;-71
2023/06/26 08:22:13;;;;;;;7.90;7.10;;;;;;;-148.14;100.00;71486.72;1725888;75;41344;-70
2023/06/26 08:24:43;;;;;;;6.60;5.50;;;;;;;-148.14;100.00;71486.72;1726377;75;41516;-71
2023/06/26 08:27:12;;;;;;;7.60;6.80;;;;;;;-148.14;100.00;71486.72;1726241;75;41592;-71
2023/06/26 08:29:44;;;;;;;6.30;5.70;;;;;;;-148.14;100.00;71486.72;1726048;75;41127;-68
2023/06/26 08:32:14;;;;;;;8.00;7.20;;;;;;;-148.14;100.00;71486.72;1726021;75;41670;-71
2023/06/26 08:34:43;;;;;;;7.40;6.40;;;;;;;-148.14;100.00;71486.72;1726422;75;41351;-70
2023/06/26 08:37:13;;;;;;;7.00;6.30;;;;;;;-148.14;100.00;71486.72;1725595;75;41694;-71
2023/06/26 08:39:42;;;;;;;7.00;6.30;;;;;;;-148.14;100.00;71486.72;1726271;75;41097;-71
2023/06/26 08:42:12;;;;;;;6.10;5.50;;;;;;;-148.14;100.00;71486.72;1724958;75;41541;-69
2023/06/26 08:44:44;;;;;;;6.40;5.80;;;;;;;-148.14;100.00;71486.72;1725499;75;41558;-72
2023/06/26 08:47:15;;;;;;;6.30;5.70;;;;;;;-148.14;100.00;71486.72;1724698;75;41229;-71
2023/06/26 08:49:50;;;;;;;6.90;6.20;;;;;;;-148.14;100.00;71486.72;1725751;75;41791;-70
2023/06/26 08:52:22;;;;;;;7.60;6.80;;;;;;;-148.14;100.00;71486.72;1724961;75;41674;-71
2023/06/26 08:54:58;;;;;;;7.00;6.10;;;;;;;-148.14;100.00;71486.72;1725820;75;41097;-72
2023/06/26 08:57:29;;;;;;;6.70;6.10;;;;;;;-148.14;100.00;71486.72;1725370;75;42159;-72
2023/06/26 09:00:02;;;;;;;7.00;6.30;;;;;;;-148.14;100.00;71486.72;1725900;75;41283;-69
2023/06/26 09:02:32;;;;;;;6.30;5.70;;;;;;;-148.14;100.00;71486.72;1725194;75;43504;-73
2023/06/26 09:05:01;;;;;;;6.20;5.60;;;;;;;-148.14;100.00;71486.72;1725739;75;41276;-73
2023/06/26 09:07:30;;;;;;;6.90;6.20;;;;;;;-148.14;100.00;71486.72;1725228;83;41464;-70
2023/06/26 09:10:00;;;;;;;6.10;5.50;;;;;;;-148.14;100.00;71486.72;1725277;75;41300;-70
2023/06/26 09:12:30;;;;;;;7.60;6.80;;;;;;;-148.14;100.00;71486.72;1725049;75;41605;-70
2023/06/26 09:15:03;;;;;;;6.70;6.00;;;;;;;-148.14;100.00;71486.72;1725579;75;41112;-71
2023/06/26 09:17:33;;;;;;;6.10;5.50;;;;;;;-148.14;100.00;71486.72;1725437;75;42011;-73
2023/06/26 09:20:03;;;;;;;6.80;6.20;;;;;;;-148.14;100.00;71486.72;1725768;75;41252;-71
2023/06/26 09:22:36;;;;;;;6.20;5.60;;;;;;;-148.14;100.00;71486.72;1725230;75;41989;-70
2023/06/26 09:25:06;;;;;;;6.10;5.50;;;;;;;-148.14;100.00;71486.72;1725239;83;41182;-71
2023/06/26 09:27:36;;;;;;;6.00;5.40;;;;;;;-148.14;100.00;71486.72;1725129;75;43112;-70
2023/06/26 09:30:09;;;;;;;5.30;4.80;;;;;;;-148.14;100.00;71486.72;1725857;75;41429;-76
2023/06/26 09:32:39;;;;;;;4.80;4.30;;;;;;;-148.14;100.00;71486.72;1725126;83;41917;-73
2023/06/26 09:35:09;;;;;;;5.20;4.70;;;;;;;-148.14;100.00;71486.72;1725710;75;41398;-70
2023/06/26 09:37:39;;;;;;;6.80;6.10;;;;;;;-148.14;100.00;71486.72;1724420;75;41207;-77
2023/06/26 09:40:09;;;;;;;6.40;5.80;;;;;;;-148.14;100.00;71486.72;1725838;75;41766;-70
2023/06/26 09:42:39;;;;;;;6.60;5.50;;;;;;;-148.14;100.00;71486.72;1725421;75;41345;-73
2023/06/26 09:45:15;;;;;;;5.10;4.60;;;;;;;-148.14;100.00;71486.72;1725995;75;41619;-70
2023/06/26 09:47:48;;;;;;;4.40;4.00;;;;;;;-148.14;100.00;71486.72;1725366;75;42092;-71
2023/06/26 09:50:27;;;;;;;5.60;5.10;;;;;;;-148.14;100.00;71486.72;1725825;75;41089;-74
2023/06/26 09:52:56;;;;;;;5.50;5.00;;;;;;;-148.14;100.00;71486.72;1725213;75;42766;-74
2023/06/26 09:55:26;;;;;;;5.40;4.80;;;;;;;-148.14;100.00;71486.72;1725829;75;41518;-72
2023/06/26 09:57:55;;;;;;;5.70;5.20;;;;;;;-148.14;100.00;71486.72;1724917;75;41544;-71
2023/06/26 10:00:27;;;;;;;6.10;5.50;;;;;;;-148.14;100.00;71486.72;1725523;75;41487;-73
2023/06/26 10:02:57;;;;;;;5.30;4.80;;;;;;;-148.14;100.00;71486.72;1724963;75;42057;-72
2023/06/26 10:05:26;;;;;;;5.50;5.00;;;;;;;-148.14;100.00;71486.72;1725416;75;41322;-73
2023/06/26 10:07:56;;;;;;;5.10;4.60;;;;;;;-148.14;100.00;71486.72;1724986;75;41485;-72
2023/06/26 10:10:27;;;;;;;5.00;4.50;;;;;;;-148.14;100.00;71486.72;1724804;75;41182;-76
2023/06/26 10:13:01;;;;;;;5.20;4.70;;;;;;;-148.14;100.00;71486.72;1724877;75;41475;-69
2023/06/26 10:15:35;;;;;;;6.10;5.40;;;;;;;-148.14;100.00;71486.72;1725803;75;41060;-71
2023/06/26 10:18:04;;;;;;;6.20;5.30;;;;;;;-148.14;100.00;71486.72;1724765;83;41513;-71
2023/06/26 10:20:34;;;;;;;6.10;5.50;;;;;;;-148.14;100.00;71486.72;1725762;75;41551;-71
2023/06/26 10:23:04;;;;;;;7.20;6.50;;;;;;;-148.14;100.00;71486.72;1725129;83;41373;-69
2023/06/26 10:25:35;;;;;;;6.50;5.60;;;;;;;-148.14;100.00;71486.72;1725230;75;41385;-72
2023/06/26 10:28:06;;;;;;;7.40;6.10;;;;;;;-148.14;100.00;71486.72;1724714;75;42619;-74
2023/06/26 10:30:40;;;;;;;5.80;5.30;;;;;;;-148.14;100.00;71486.72;1725712;75;41292;-71
2023/06/26 10:33:09;;;;;;;5.50;5.00;;;;;;;-148.14;100.00;71486.72;1725211;75;42318;-74
2023/06/26 10:35:47;;;;;;;5.40;4.90;;;;;;;-148.14;100.00;71486.72;1725718;75;41110;-73
2023/06/26 10:38:18;;;;;;;5.80;5.30;;;;;;;-148.14;100.00;71486.72;1725026;83;42223;-74
2023/06/26 10:40:49;;;;;;;6.30;5.70;;;;;;;-148.14;100.00;71486.72;1725681;75;41129;-70
2023/06/26 10:43:19;;;;;;;5.50;5.00;;;;;;;-148.14;100.00;71486.72;1725141;75;42279;-70
2023/06/26 10:45:54;;;;;;;5.80;5.20;;;;;;;-148.14;100.00;71486.72;1725273;75;41410;-71
2023/06/26 10:48:23;;;;;;;5.10;4.60;;;;;;;-148.14;100.00;71486.72;1725238;75;41387;-71
2023/06/26 10:52:40;;;;;;;5.10;4.60;;;;;;;29.06;45.67;97620.03;1709938;75;917112;-74
2023/06/26 10:55:12;;;;;;;5.40;4.40;;;;;;;29.03;46.74;97614.81;1704154;75;683886;-74
2023/06/26 10:57:42;;;;;;;5.20;4.70;;;;;;;29.47;46.64;97614.19;1711806;75;672559;-74
2023/06/26 11:00:13;;;;;;;4.90;4.40;;;;;;;29.07;46.46;97609.50;1704495;75;680980;-75
2023/06/26 11:02:53;;;;;;;6.30;4.50;;;;;;;29.35;45.01;97607.78;1712566;75;675948;-75
2023/06/26 11:05:36;;;;;;;5.50;4.60;;;;;;;30.10;46.42;97608.19;1701963;75;865056;-74
2023/06/26 11:08:19;;;;;;;5.60;5.10;;;;;;;29.52;45.31;97601.09;1704381;75;675392;-72
2023/06/26 11:10:56;;;;;;;5.55;5.05;;;;;;;28.73;47.87;97599.50;1710684;75;809074;-74
2023/06/26 11:13:26;;;;;;;;;;;;;;;29.26;47.61;97597.31;1704119;75;714810;-74
2023/06/26 11:15:58;;;;;;;5.90;5.00;;;;;;;28.97;47.14;97614.44;1710014;75;879495;-75
2023/06/26 11:18:28;;;;;;;5.80;4.90;;;;;;;29.60;46.13;97603.69;1704162;75;689002;-75
2023/06/26 11:21:07;;;;;;;5.70;4.50;;;;;;;29.81;47.12;97605.72;1712137;75;694755;-75
2023/06/26 11:23:40;;;;;;;5.95;5.35;;;;;;;28.89;47.92;97614.66;1703267;75;751595;-76
2023/06/26 11:26:21;;;;;;;6.00;5.30;;;;;;;28.67;47.27;97614.66;1712200;75;676146;-74